Time;durP1;ratioP1;P1;durP2;ratioP2;P2;SDS_P1;SDS_P2;PMS_P1;PMS_P2;Temp;Humidity;BMP_temperature;BMP_pressure;BME280_temperature;BME280_humidity;BME280_pressure;Samples;Min_cycle;Max_cycle;Signal;HPM_P1;HPM_P2
2023/08/27 00:00:17;;;;;;;8.60;6.28;;;11.90;99.90;;;;;;4970704;28;20044;-80
2023/08/27 00:02:43;;;;;;;10.88;7.10;;;11.90;99.90;;;;;;4985520;28;20046;-80
2023/08/27 00:05:09;;;;;;;8.88;7.30;;;11.90;99.90;;;;;;4981749;28;20129;-80
2023/08/27 00:07:35;;;;;;;8.90;6.57;;;11.90;99.90;;;;;;4961944;28;20088;-81
2023/08/27 00:10:01;;;;;;;9.77;7.18;;;11.90;99.90;;;;;;4996130;28;20037;-80
2023/08/27 00:12:27;;;;;;;12.38;7.47;;;11.90;99.90;;;;;;4965055;28;20121;-80
2023/08/27 00:14:53;;;;;;;16.13;7.90;;;11.90;99.90;;;;;;4986279;28;20121;-80
2023/08/27 00:17:19;;;;;;;9.52;7.20;;;11.90;99.90;;;;;;4982959;28;20042;-80
2023/08/27 00:19:45;;;;;;;9.88;7.90;;;11.90;99.90;;;;;;4983822;28;20038;-80
2023/08/27 00:22:11;;;;;;;9.40;7.25;;;11.90;99.90;;;;;;4987320;28;20501;-80
2023/08/27 00:24:36;;;;;;;12.27;7.72;;;11.80;99.90;;;;;;4987074;28;21627;-80
2023/08/27 00:27:03;;;;;;;12.25;7.65;;;11.80;99.90;;;;;;4975237;28;20050;-75
2023/08/27 00:29:29;;;;;;;10.77;7.72;;;11.80;99.90;;;;;;4984573;28;20061;-82
2023/08/27 00:31:54;;;;;;;12.85;7.55;;;11.80;99.90;;;;;;4976499;28;20042;-80
2023/08/27 00:34:21;;;;;;;14.65;7.88;;;11.80;99.90;;;;;;4985433;28;20045;-80
2023/08/27 00:36:46;;;;;;;9.00;7.53;;;11.80;99.90;;;;;;4968015;28;20073;-79
2023/08/27 00:39:12;;;;;;;9.18;6.88;;;11.80;99.90;;;;;;4979813;28;20070;-80
2023/08/27 00:41:37;;;;;;;9.35;7.13;;;11.80;99.90;;;;;;5000811;28;20453;-80
2023/08/27 00:44:03;;;;;;;12.80;7.43;;;11.70;99.90;;;;;;4989407;28;20046;-80
2023/08/27 00:46:29;;;;;;;10.52;7.75;;;11.80;99.90;;;;;;4985205;28;20038;-80
2023/08/27 00:48:55;;;;;;;10.25;7.93;;;11.70;99.90;;;;;;5002305;28;20038;-80
2023/08/27 00:51:21;;;;;;;9.15;7.70;;;11.80;99.90;;;;;;4999314;28;20054;-80
2023/08/27 00:53:47;;;;;;;10.23;7.53;;;11.80;99.90;;;;;;4990164;28;20041;-80
2023/08/27 00:56:13;;;;;;;9.57;7.32;;;11.70;99.90;;;;;;4983844;28;20480;-80
2023/08/27 00:58:39;;;;;;;10.95;7.78;;;11.80;99.90;;;;;;4998306;28;20121;-80
2023/08/27 01:01:05;;;;;;;12.77;8.23;;;11.80;99.90;;;;;;5000124;28;20981;-80
2023/08/27 01:03:33;;;;;;;11.82;8.15;;;11.80;99.90;;;;;;4990621;28;20049;-80
2023/08/27 01:05:58;;;;;;;11.18;8.00;;;11.80;99.90;;;;;;4995022;28;20074;-80
2023/08/27 01:08:41;;;;;;;11.18;7.57;;;11.80;99.90;;;;;;5000492;28;20211;-80
2023/08/27 01:11:42;;;;;;;12.07;8.10;;;11.80;99.90;;;;;;4983605;28;20046;-80
2023/08/27 01:14:11;;;;;;;9.50;7.22;;;11.80;99.90;;;;;;4977427;28;20031;-80
2023/08/27 01:16:38;;;;;;;11.35;7.70;;;11.80;99.90;;;;;;4983482;28;20117;-81
2023/08/27 01:19:15;;;;;;;11.65;7.68;;;11.70;99.90;;;;;;4993162;28;20783;-79
2023/08/27 01:21:42;;;;;;;10.20;7.75;;;11.80;99.90;;;;;;4978503;28;20039;-79
2023/08/27 01:24:08;;;;;;;11.30;8.18;;;11.80;99.90;;;;;;4984485;28;20393;-80
2023/08/27 01:26:46;;;;;;;9.95;7.88;;;11.80;99.90;;;;;;4981682;28;20035;-80
2023/08/27 01:29:36;;;;;;;12.90;8.93;;;11.90;99.90;;;;;;4984797;28;20559;-80
2023/08/27 01:32:16;;;;;;;11.65;8.25;;;12.00;99.90;;;;;;4984430;28;20070;-80
2023/08/27 01:34:43;;;;;;;10.98;8.32;;;12.00;99.90;;;;;;4980972;28;20050;-80
2023/08/27 01:37:12;;;;;;;9.98;8.00;;;12.20;99.90;;;;;;4980714;28;21186;-80
2023/08/27 01:39:38;;;;;;;17.85;8.70;;;12.30;99.90;;;;;;4979220;28;20034;-80
2023/08/27 01:42:05;;;;;;;11.25;7.63;;;12.30;99.90;;;;;;4993760;28;20106;-81
2023/08/27 01:44:31;;;;;;;10.38;8.18;;;12.40;99.90;;;;;;5010380;28;20424;-80
2023/08/27 01:46:56;;;;;;;10.77;8.25;;;12.40;99.90;;;;;;4973953;28;20065;-80
2023/08/27 01:49:22;;;;;;;11.07;7.90;;;12.40;99.90;;;;;;5003884;28;20030;-80
2023/08/27 01:51:48;;;;;;;11.15;7.72;;;12.40;99.90;;;;;;4987781;28;20100;-80
2023/08/27 01:54:14;;;;;;;11.55;8.07;;;12.40;99.90;;;;;;4983817;28;20628;-80
2023/08/27 01:56:39;;;;;;;11.68;7.60;;;12.30;99.90;;;;;;4987583;28;20133;-80
2023/08/27 01:59:05;;;;;;;9.68;7.85;;;12.30;99.90;;;;;;4975055;28;20512;-80
2023/08/27 02:01:31;;;;;;;9.55;7.38;;;12.20;99.90;;;;;;4992236;28;20116;-80
2023/08/27 02:03:57;;;;;;;9.52;7.60;;;12.20;99.90;;;;;;4992677;28;20041;-80
2023/08/27 02:06:23;;;;;;;10.32;7.85;;;12.20;99.90;;;;;;4985362;28;20145;-80
2023/08/27 02:08:48;;;;;;;11.48;7.38;;;12.10;99.90;;;;;;4985422;28;20033;-80
2023/08/27 02:11:14;;;;;;;10.07;7.38;;;12.00;99.90;;;;;;4991087;28;20035;-79
2023/08/27 02:13:40;;;;;;;9.98;7.75;;;12.00;99.90;;;;;;4998911;28;20046;-80
2023/08/27 02:16:05;;;;;;;11.45;7.50;;;12.00;99.90;;;;;;4987271;28;20057;-80
2023/08/27 02:18:31;;;;;;;10.25;8.18;;;11.90;99.90;;;;;;4983921;28;20038;-81
2023/08/27 02:20:57;;;;;;;10.35;7.68;;;11.90;99.90;;;;;;4987021;28;20043;-80
2023/08/27 02:23:23;;;;;;;10.77;7.97;;;11.80;99.90;;;;;;4987458;28;20034;-80
2023/08/27 02:25:49;;;;;;;11.00;7.57;;;11.80;99.90;;;;;;4969395;28;20042;-80
2023/08/27 02:28:15;;;;;;;11.85;7.85;;;11.80;99.90;;;;;;4983087;28;20088;-79
2023/08/27 02:30:40;;;;;;;10.95;7.85;;;11.80;99.90;;;;;;4971424;28;20648;-79
2023/08/27 02:33:06;;;;;;;13.68;7.78;;;11.70;99.90;;;;;;4976103;28;20541;-80
2023/08/27 02:35:32;;;;;;;9.52;7.20;;;11.70;99.90;;;;;;4983744;28;20046;-80
2023/08/27 02:37:57;;;;;;;13.27;8.15;;;11.70;99.90;;;;;;4987005;28;20421;-80
2023/08/27 02:40:23;;;;;;;9.75;7.82;;;11.70;99.90;;;;;;4987125;28;20034;-80
2023/08/27 02:42:48;;;;;;;15.60;7.63;;;11.60;99.90;;;;;;5006290;28;20038;-80
2023/08/27 02:45:14;;;;;;;12.10;7.63;;;11.60;99.90;;;;;;4987787;28;20501;-80
2023/08/27 02:47:40;;;;;;;8.98;6.75;;;11.50;99.90;;;;;;5001131;28;20027;-79
2023/08/27 02:50:06;;;;;;;8.52;7.10;;;11.50;99.90;;;;;;4987250;28;20130;-79
2023/08/27 02:52:32;;;;;;;10.27;7.50;;;11.50;99.90;;;;;;4980529;28;20026;-80
2023/08/27 02:54:58;;;;;;;10.73;8.02;;;11.50;99.90;;;;;;4984869;28;20485;-80
2023/08/27 02:57:23;;;;;;;10.68;7.50;;;11.50;99.90;;;;;;4982287;28;20099;-80
2023/08/27 02:59:49;;;;;;;10.25;7.93;;;11.50;99.90;;;;;;4986410;28;20054;-80
2023/08/27 03:02:15;;;;;;;12.10;7.90;;;11.50;99.90;;;;;;4979749;28;20041;-79
2023/08/27 03:04:40;;;;;;;10.10;7.90;;;11.50;99.90;;;;;;4989141;28;20046;-79
2023/08/27 03:07:06;;;;;;;11.40;8.82;;;11.50;99.90;;;;;;4993562;28;20042;-79
2023/08/27 03:09:31;;;;;;;12.90;8.13;;;11.50;99.90;;;;;;4989066;28;20046;-79
2023/08/27 03:11:57;;;;;;;12.05;8.15;;;11.60;99.90;;;;;;4988726;28;20041;-79
2023/08/27 03:14:22;;;;;;;11.35;8.20;;;11.60;99.90;;;;;;4991893;28;20456;-80
2023/08/27 03:16:48;;;;;;;11.15;7.85;;;11.60;99.90;;;;;;4984346;28;20042;-79
2023/08/27 03:19:14;;;;;;;15.13;8.65;;;11.60;99.90;;;;;;4998613;28;20047;-80
2023/08/27 03:21:39;;;;;;;12.05;8.15;;;11.60;99.90;;;;;;4985912;28;20022;-79
2023/08/27 03:24:05;;;;;;;12.15;8.07;;;11.60;99.90;;;;;;4986361;28;20039;-80
2023/08/27 03:26:31;;;;;;;11.57;7.60;;;11.60;99.90;;;;;;4985727;28;20409;-79
2023/08/27 03:28:57;;;;;;;11.15;7.70;;;11.60;99.90;;;;;;4987591;28;20053;-79
2023/08/27 03:31:22;;;;;;;12.95;8.40;;;11.60;99.90;;;;;;4997265;28;20177;-79
2023/08/27 03:33:48;;;;;;;12.30;8.10;;;11.70;99.90;;;;;;4989150;28;20054;-80
2023/08/27 03:36:14;;;;;;;13.23;8.68;;;11.80;99.90;;;;;;4984241;28;20081;-80
2023/08/27 03:38:39;;;;;;;14.23;8.98;;;11.90;99.90;;;;;;4985832;28;20038;-80
2023/08/27 03:41:05;;;;;;;10.68;8.25;;;11.80;99.90;;;;;;4991550;28;20554;-79
2023/08/27 03:43:31;;;;;;;11.93;8.55;;;11.90;99.90;;;;;;4970885;28;20037;-80
2023/08/27 03:45:56;;;;;;;14.25;8.95;;;12.00;99.90;;;;;;4984787;28;20035;-80
2023/08/27 03:48:22;;;;;;;11.32;8.82;;;12.00;99.90;;;;;;4990395;28;20046;-79
2023/08/27 03:50:48;;;;;;;11.07;8.38;;;12.00;99.90;;;;;;4995439;28;20499;-80
2023/08/27 03:53:13;;;;;;;10.88;8.20;;;12.10;99.90;;;;;;4984067;28;20073;-79
2023/08/27 03:55:39;;;;;;;11.77;8.65;;;12.20;99.90;;;;;;4977744;28;20397;-81
2023/08/27 03:58:06;;;;;;;11.35;8.57;;;12.20;99.90;;;;;;4976091;28;20042;-79
2023/08/27 04:00:33;;;;;;;11.95;8.27;;;12.30;99.90;;;;;;4982882;28;20046;-80
2023/08/27 04:02:59;;;;;;;10.85;8.15;;;12.40;99.90;;;;;;4983837;28;20169;-80
2023/08/27 04:05:25;;;;;;;10.57;8.10;;;12.30;99.90;;;;;;4952535;28;20091;-80
2023/08/27 04:07:51;;;;;;;10.40;8.13;;;12.30;99.90;;;;;;4982218;28;20496;-80
2023/08/27 04:10:16;;;;;;;14.32;8.38;;;12.30;99.90;;;;;;4970689;28;20037;-80
2023/08/27 04:12:42;;;;;;;11.55;8.13;;;12.30;99.90;;;;;;4969927;28;20034;-80
2023/08/27 04:15:08;;;;;;;11.70;8.48;;;12.30;99.90;;;;;;5003708;28;20534;-80
2023/08/27 04:17:34;;;;;;;11.35;7.28;;;12.30;99.90;;;;;;4983530;28;20124;-80
2023/08/27 04:19:59;;;;;;;10.05;7.63;;;12.30;99.90;;;;;;4991680;28;20110;-81
2023/08/27 04:22:25;;;;;;;10.93;8.20;;;12.20;99.90;;;;;;5002731;28;20050;-80
2023/08/27 04:24:51;;;;;;;14.05;7.80;;;12.20;99.90;;;;;;4997691;28;20042;-80
2023/08/27 04:27:17;;;;;;;9.23;7.68;;;12.00;99.90;;;;;;4990716;28;20058;-79
2023/08/27 04:29:43;;;;;;;11.48;7.95;;;12.00;99.90;;;;;;5002467;28;20501;-79
2023/08/27 04:32:09;;;;;;;10.88;7.68;;;11.90;99.90;;;;;;4981682;28;20043;-80
2023/08/27 04:34:35;;;;;;;11.45;7.72;;;11.80;99.90;;;;;;5003416;28;20592;-79
2023/08/27 04:37:03;;;;;;;11.35;7.57;;;11.80;99.90;;;;;;4986277;28;20062;-81
2023/08/27 04:39:29;;;;;;;10.82;7.38;;;11.80;99.90;;;;;;4969483;28;20088;-80
2023/08/27 04:41:55;;;;;;;9.75;7.22;;;11.70;99.90;;;;;;4984433;28;20030;-80
2023/08/27 04:44:21;;;;;;;10.70;7.63;;;11.70;99.90;;;;;;4979987;28;20071;-80
2023/08/27 04:46:47;;;;;;;10.50;7.35;;;11.70;99.90;;;;;;4985130;28;20043;-79
2023/08/27 04:49:13;;;;;;;11.10;6.90;;;11.60;99.90;;;;;;4986486;28;20442;-80
2023/08/27 04:51:38;;;;;;;9.98;7.50;;;11.60;99.90;;;;;;4985253;28;20116;-80
2023/08/27 04:54:04;;;;;;;9.07;7.22;;;11.60;99.90;;;;;;4983823;28;20031;-79
2023/08/27 04:56:30;;;;;;;9.07;7.15;;;11.60;99.90;;;;;;4985141;28;20410;-80
2023/08/27 04:58:56;;;;;;;10.82;7.15;;;11.60;99.90;;;;;;4986677;28;20515;-79
2023/08/27 05:01:21;;;;;;;10.55;7.50;;;11.70;99.90;;;;;;4983801;28;20045;-80
2023/08/27 05:03:47;;;;;;;10.68;7.32;;;11.70;99.90;;;;;;4981813;28;20038;-80
2023/08/27 05:06:12;;;;;;;9.00;7.53;;;11.60;99.90;;;;;;4982426;28;20038;-79
2023/08/27 05:08:39;;;;;;;9.57;7.55;;;11.70;99.90;;;;;;4984200;28;20103;-80
2023/08/27 05:11:04;;;;;;;9.90;7.68;;;11.70;99.90;;;;;;4984229;28;20029;-79
2023/08/27 05:13:30;;;;;;;8.80;7.03;;;11.70;99.90;;;;;;4966644;28;20516;-79
2023/08/27 05:15:55;;;;;;;10.50;7.20;;;11.70;99.90;;;;;;4981269;28;20069;-80
2023/08/27 05:18:21;;;;;;;10.85;7.25;;;11.60;99.90;;;;;;4997156;28;20042;-82
2023/08/27 05:20:47;;;;;;;13.55;7.63;;;11.70;99.90;;;;;;4986544;28;20426;-79
2023/08/27 05:23:12;;;;;;;12.27;7.90;;;11.70;99.90;;;;;;4984495;28;20049;-79
2023/08/27 05:25:38;;;;;;;9.55;7.22;;;11.80;99.90;;;;;;4982427;28;20069;-80
2023/08/27 05:28:04;;;;;;;10.05;6.82;;;11.90;99.90;;;;;;4988635;28;20129;-80
2023/08/27 05:30:30;;;;;;;10.88;6.50;;;12.10;99.90;;;;;;4983009;28;20057;-80
2023/08/27 05:32:56;;;;;;;9.60;7.20;;;12.20;99.90;;;;;;4968295;28;20088;-79
2023/08/27 05:35:22;;;;;;;9.25;7.15;;;12.40;99.90;;;;;;4987670;28;20038;-80
2023/08/27 05:37:48;;;;;;;10.60;7.65;;;12.60;99.90;;;;;;4969176;28;20474;-80
2023/08/27 05:40:13;;;;;;;11.55;7.35;;;12.80;99.90;;;;;;4999654;28;20093;-79
2023/08/27 05:42:39;;;;;;;14.13;8.18;;;13.10;99.90;;;;;;5000170;28;20046;-79
2023/08/27 05:45:05;;;;;;;9.55;7.10;;;13.30;99.90;;;;;;4982290;28;20069;-79
2023/08/27 05:47:31;;;;;;;8.43;6.85;;;13.50;99.90;;;;;;4985662;28;20104;-80
2023/08/27 05:49:57;;;;;;;8.82;6.38;;;13.70;99.90;;;;;;4999280;28;20393;-80
2023/08/27 05:52:22;;;;;;;10.90;6.78;;;13.90;99.90;;;;;;4974508;28;20045;-79
2023/08/27 05:54:48;;;;;;;10.80;6.65;;;14.10;99.90;;;;;;4982775;28;20042;-80
2023/08/27 05:57:14;;;;;;;9.50;6.45;;;14.20;99.90;;;;;;5000955;28;20038;-79
2023/08/27 05:59:39;;;;;;;8.70;6.78;;;14.30;99.90;;;;;;4976410;28;20047;-80
2023/08/27 06:02:05;;;;;;;9.20;6.43;;;14.30;99.90;;;;;;4968567;28;20046;-80
2023/08/27 06:04:31;;;;;;;8.55;6.18;;;14.30;99.90;;;;;;4985292;28;20129;-80
2023/08/27 06:06:57;;;;;;;8.40;5.88;;;14.30;99.90;;;;;;5001396;28;20449;-80
2023/08/27 06:09:22;;;;;;;7.20;5.70;;;14.40;99.90;;;;;;5000913;28;20046;-80
2023/08/27 06:11:48;;;;;;;8.80;6.28;;;14.30;99.90;;;;;;4984623;28;20038;-80
2023/08/27 06:14:14;;;;;;;8.27;6.50;;;14.20;99.90;;;;;;4982046;28;20062;-81
2023/08/27 06:16:39;;;;;;;7.85;6.05;;;14.20;99.90;;;;;;4981065;28;20052;-80
2023/08/27 06:19:05;;;;;;;8.43;5.68;;;14.00;99.90;;;;;;4991217;28;20046;-80
2023/08/27 06:21:31;;;;;;;8.45;5.75;;;14.00;99.90;;;;;;4998112;28;20046;-81
2023/08/27 06:23:56;;;;;;;7.38;5.18;;;13.90;99.90;;;;;;4968363;28;20092;-80
2023/08/27 06:26:22;;;;;;;9.18;5.63;;;13.80;99.90;;;;;;4983262;28;20189;-80
2023/08/27 06:28:48;;;;;;;7.43;5.30;;;13.80;99.90;;;;;;4983036;28;20041;-81
2023/08/27 06:31:13;;;;;;;9.00;5.50;;;13.80;99.90;;;;;;5000906;28;20093;-81
2023/08/27 06:33:39;;;;;;;12.57;6.15;;;13.70;99.90;;;;;;4987921;28;20111;-81
2023/08/27 06:36:05;;;;;;;8.77;5.53;;;13.70;99.90;;;;;;4972017;28;20041;-81
2023/08/27 06:38:31;;;;;;;11.20;4.80;;;13.70;99.90;;;;;;5011171;28;20042;-80
2023/08/27 06:40:58;;;;;;;7.00;5.13;;;13.60;99.90;;;;;;4979939;28;20035;-81
2023/08/27 06:43:24;;;;;;;7.55;5.25;;;13.60;99.90;;;;;;4967585;28;20050;-82
2023/08/27 06:45:50;;;;;;;7.55;5.53;;;13.60;99.90;;;;;;4986277;28;20170;-82
2023/08/27 06:48:16;;;;;;;7.57;4.40;;;13.60;99.90;;;;;;4988524;28;20386;-82
2023/08/27 06:50:42;;;;;;;9.55;5.45;;;13.60;99.90;;;;;;4984270;28;20026;-82
2023/08/27 06:53:08;;;;;;;8.18;5.20;;;13.60;99.90;;;;;;4986618;28;20042;-82
2023/08/27 06:55:34;;;;;;;8.68;5.13;;;13.80;99.90;;;;;;4984274;28;20449;-82
2023/08/27 06:57:59;;;;;;;9.15;5.28;;;13.70;99.90;;;;;;4982783;28;20094;-82
2023/08/27 07:00:25;;;;;;;9.05;5.13;;;13.80;99.90;;;;;;4970446;28;20046;-82
2023/08/27 07:02:51;;;;;;;9.40;5.13;;;13.80;99.90;;;;;;4998439;28;20038;-82
2023/08/27 07:05:18;;;;;;;7.20;4.63;;;13.80;99.90;;;;;;4979691;28;20046;-81
2023/08/27 07:07:44;;;;;;;6.13;4.57;;;13.90;99.90;;;;;;5002803;28;20034;-81
2023/08/27 07:10:11;;;;;;;6.13;4.63;;;13.90;99.90;;;;;;4981402;28;20045;-82
2023/08/27 07:12:37;;;;;;;7.63;4.55;;;13.90;99.90;;;;;;4967182;28;20041;-79
2023/08/27 07:15:04;;;;;;;7.38;4.57;;;13.90;99.90;;;;;;4962492;28;20121;-78
2023/08/27 07:17:32;;;;;;;6.95;4.60;;;14.00;99.90;;;;;;4986912;28;20058;-78
2023/08/27 07:20:07;;;;;;;6.40;4.95;;;14.10;99.90;;;;;;4973581;28;20125;-80
2023/08/27 07:22:33;;;;;;;6.85;4.25;;;14.10;99.90;;;;;;4989013;28;20501;-80
2023/08/27 07:24:59;;;;;;;7.40;4.60;;;14.20;99.90;;;;;;4986649;28;20226;-80
2023/08/27 07:27:25;;;;;;;5.78;4.10;;;14.20;99.90;;;;;;4971729;28;20034;-80
2023/08/27 07:29:51;;;;;;;8.50;4.65;;;14.20;99.90;;;;;;4982749;28;20057;-80
2023/08/27 07:32:17;;;;;;;6.50;4.20;;;14.20;99.90;;;;;;4996496;28;20057;-80
2023/08/27 07:34:45;;;;;;;5.63;4.03;;;14.20;99.90;;;;;;4983936;28;20070;-80
2023/08/27 07:37:11;;;;;;;6.82;4.45;;;14.20;99.90;;;;;;4966067;28;20487;-80
2023/08/27 07:39:37;;;;;;;7.32;4.65;;;14.30;99.90;;;;;;4985463;28;20069;-81
2023/08/27 07:42:03;;;;;;;9.70;3.97;;;14.30;99.90;;;;;;4962114;28;20039;-81
2023/08/27 07:44:28;;;;;;;6.68;4.13;;;14.30;99.90;;;;;;4983236;28;20045;-81
2023/08/27 07:46:54;;;;;;;5.30;3.47;;;14.40;99.90;;;;;;4968152;28;20034;-81
2023/08/27 07:49:19;;;;;;;6.97;3.92;;;14.40;99.90;;;;;;4991135;28;20037;-81
2023/08/27 07:51:46;;;;;;;5.15;3.58;;;14.40;99.90;;;;;;4985655;28;20038;-81
2023/08/27 07:54:11;;;;;;;5.45;3.63;;;14.40;99.90;;;;;;4968486;28;20204;-81
2023/08/27 07:56:37;;;;;;;4.90;3.22;;;14.30;99.90;;;;;;4972602;28;20520;-81
2023/08/27 07:59:03;;;;;;;4.88;2.90;;;14.20;99.90;;;;;;4991794;28;20026;-80
2023/08/27 08:01:28;;;;;;;4.25;2.75;;;14.20;99.90;;;;;;4995431;28;20089;-80
2023/08/27 08:03:54;;;;;;;3.72;2.53;;;14.20;99.90;;;;;;4982479;28;20042;-80
2023/08/27 08:06:19;;;;;;;3.08;2.25;;;14.20;99.90;;;;;;4970086;28;20042;-80
2023/08/27 08:08:45;;;;;;;4.93;2.85;;;14.20;99.90;;;;;;4985063;28;20108;-81
2023/08/27 08:11:11;;;;;;;3.40;2.75;;;14.10;99.90;;;;;;4976409;28;20057;-81
2023/08/27 08:13:39;;;;;;;3.92;2.72;;;14.20;99.90;;;;;;4992381;28;20042;-80
2023/08/27 08:16:05;;;;;;;3.13;2.38;;;14.20;99.90;;;;;;4988173;28;20107;-80
2023/08/27 08:18:31;;;;;;;4.85;2.88;;;14.20;99.90;;;;;;4966891;28;20190;-80
2023/08/27 08:20:59;;;;;;;5.65;3.13;;;14.30;99.90;;;;;;4993389;28;20060;-79
2023/08/27 08:23:25;;;;;;;3.42;2.78;;;14.30;99.90;;;;;;4975105;28;20378;-80
2023/08/27 08:25:51;;;;;;;3.70;2.97;;;14.40;99.90;;;;;;4978271;28;20104;-79
2023/08/27 08:28:17;;;;;;;4.38;3.30;;;14.50;99.90;;;;;;4965089;28;20257;-78
2023/08/27 08:30:48;;;;;;;5.00;2.83;;;14.60;99.90;;;;;;4986981;28;20054;-78
2023/08/27 08:33:15;;;;;;;11.18;3.58;;;14.70;99.90;;;;;;4982294;28;20046;-79
2023/08/27 08:35:41;;;;;;;7.45;3.25;;;14.80;99.90;;;;;;4982779;28;20069;-79
2023/08/27 08:38:07;;;;;;;6.03;3.17;;;14.90;99.90;;;;;;4980595;28;20042;-79
2023/08/27 08:40:56;;;;;;;4.32;3.20;;;14.90;99.90;;;;;;5000354;28;20069;-79
2023/08/27 08:43:44;;;;;;;4.05;3.22;;;15.00;99.90;;;;;;4972781;28;20509;-80
2023/08/27 08:46:13;;;;;;;5.78;3.17;;;15.00;99.90;;;;;;4990566;28;20624;-80
2023/08/27 08:48:41;;;;;;;4.88;3.38;;;15.10;99.90;;;;;;4977501;28;20097;-79
2023/08/27 08:51:11;;;;;;;4.53;2.95;;;15.20;99.90;;;;;;4984074;28;20030;-79
2023/08/27 08:53:46;;;;;;;5.75;2.83;;;15.30;99.90;;;;;;4982785;28;20042;-79
2023/08/27 08:56:22;;;;;;;3.83;2.80;;;15.40;99.90;;;;;;4968395;28;20082;-79
2023/08/27 08:58:56;;;;;;;5.38;3.42;;;15.50;99.90;;;;;;4979593;28;20053;-79
2023/08/27 09:01:22;;;;;;;3.75;2.80;;;15.60;99.90;;;;;;4980842;28;20050;-80
2023/08/27 09:03:49;;;;;;;3.83;2.63;;;15.70;99.90;;;;;;4980124;28;20057;-79
2023/08/27 09:06:22;;;;;;;3.67;2.35;;;15.80;99.90;;;;;;4981933;28;20129;-79
2023/08/27 09:08:49;;;;;;;4.68;2.50;;;15.90;99.90;;;;;;4964323;28;20034;-80
2023/08/27 09:11:16;;;;;;;4.03;2.30;;;16.10;99.90;;;;;;4982225;28;20045;-79
2023/08/27 09:13:42;;;;;;;3.58;2.50;;;16.20;99.90;;;;;;4984481;28;20416;-79
2023/08/27 09:16:09;;;;;;;3.28;2.10;;;16.40;99.90;;;;;;4983489;28;20049;-79
2023/08/27 09:18:35;;;;;;;5.47;2.13;;;16.40;99.90;;;;;;4981693;28;20089;-78
2023/08/27 09:21:01;;;;;;;3.28;1.90;;;16.70;99.90;;;;;;4980045;28;20520;-80
2023/08/27 09:23:28;;;;;;;3.65;2.00;;;17.70;99.90;;;;;;4983704;28;20050;-77
2023/08/27 09:25:58;;;;;;;2.55;2.08;;;18.70;99.90;;;;;;4983931;28;20053;-79
2023/08/27 09:28:24;;;;;;;2.30;1.48;;;19.20;99.90;;;;;;4985524;28;20505;-80
2023/08/27 09:30:51;;;;;;;3.00;1.85;;;19.50;99.90;;;;;;4982979;28;20174;-79
2023/08/27 09:33:17;;;;;;;2.92;1.98;;;19.10;99.90;;;;;;4979847;28;20046;-79
2023/08/27 09:35:42;;;;;;;3.10;2.00;;;19.10;99.90;;;;;;4983802;28;20045;-80
2023/08/27 09:38:13;;;;;;;2.90;1.60;;;19.40;99.90;;;;;;4999914;28;20034;-79
2023/08/27 09:40:40;;;;;;;1.50;1.40;;;20.20;99.90;;;;;;4980667;28;20424;-80
2023/08/27 09:43:10;;;;;;;3.17;1.30;;;20.50;99.90;;;;;;4983804;28;20042;-79
2023/08/27 09:45:38;;;;;;;3.53;2.00;;;21.20;99.90;;;;;;4982643;28;20038;-81
2023/08/27 09:48:04;;;;;;;2.28;1.58;;;21.50;99.90;;;;;;5001031;28;20400;-80
2023/08/27 09:50:31;;;;;;;2.50;1.48;;;21.70;99.90;;;;;;4979174;28;20711;-80
2023/08/27 09:53:13;;;;;;;2.15;1.30;;;21.60;99.90;;;;;;4994676;28;20084;-79
2023/08/27 09:55:39;;;;;;;2.65;1.40;;;21.80;99.90;;;;;;4982364;28;20113;-79
2023/08/27 09:58:06;;;;;;;3.10;1.40;;;21.70;99.90;;;;;;4981854;28;20039;-79
2023/08/27 10:00:33;;;;;;;3.15;1.45;;;21.50;99.90;;;;;;4981464;28;20041;-79
2023/08/27 10:02:58;;;;;;;1.90;1.33;;;21.30;99.90;;;;;;4988093;28;20419;-79
2023/08/27 10:05:30;;;;;;;2.78;1.42;;;21.50;99.90;;;;;;4984977;28;20038;-80
2023/08/27 10:07:58;;;;;;;3.25;1.33;;;22.00;99.90;;;;;;4975027;28;20035;-80
2023/08/27 10:10:24;;;;;;;2.95;1.80;;;21.90;99.90;;;;;;4988203;28;20045;-80
2023/08/27 10:12:51;;;;;;;1.75;1.10;;;22.60;99.90;;;;;;4984475;28;20374;-79
2023/08/27 10:15:18;;;;;;;2.53;1.65;;;23.40;99.90;;;;;;4987326;28;20389;-80
2023/08/27 10:17:44;;;;;;;2.08;1.40;;;22.50;99.90;;;;;;4985894;28;20563;-80
2023/08/27 10:20:11;;;;;;;3.05;1.63;;;21.70;99.90;;;;;;4968496;28;20673;-80
2023/08/27 10:22:37;;;;;;;2.00;1.40;;;21.00;99.90;;;;;;4984732;28;20038;-80
2023/08/27 10:25:06;;;;;;;2.08;1.45;;;21.10;99.90;;;;;;5007216;28;20513;-80
2023/08/27 10:27:32;;;;;;;1.92;1.33;;;21.10;99.90;;;;;;4986365;28;20100;-79
2023/08/27 10:29:59;;;;;;;2.83;1.45;;;21.80;99.90;;;;;;5001678;28;20462;-80
2023/08/27 10:32:24;;;;;;;2.60;1.30;;;22.50;99.90;;;;;;4988180;28;20047;-80
2023/08/27 10:34:50;;;;;;;1.92;1.30;;;22.70;99.90;;;;;;4984792;28;20105;-80
2023/08/27 10:37:18;;;;;;;2.75;1.50;;;23.70;99.90;;;;;;4996533;28;20039;-80
2023/08/27 10:39:47;;;;;;;2.05;1.48;;;24.90;99.90;;;;;;4986259;28;20054;-80
2023/08/27 10:42:32;;;;;;;3.47;1.25;;;25.20;38.30;;;;;;4983210;28;20050;-80
2023/08/27 10:45:18;;;;;;;2.05;1.25;;;24.60;1.00;;;;;;4988144;28;20038;-80
2023/08/27 10:48:22;;;;;;;2.20;1.25;;;25.60;99.90;;;;;;4986120;28;20038;-80
2023/08/27 10:50:51;;;;;;;3.70;1.42;;;26.80;1.00;;;;;;4978083;28;20034;-80
2023/08/27 10:53:19;;;;;;;4.65;1.65;;;26.50;1.00;;;;;;4989603;28;20052;-81
2023/08/27 10:55:50;;;;;;;1.77;1.30;;;25.10;1.00;;;;;;4986452;28;20042;-80
2023/08/27 10:58:24;;;;;;;3.00;1.55;;;23.90;1.00;;;;;;4980161;28;20054;-81
2023/08/27 11:01:13;;;;;;;1.80;1.40;;;22.60;1.00;;;;;;4979028;28;20049;-80
2023/08/27 11:03:59;;;;;;;4.43;2.30;;;22.10;19.60;;;;;;5000172;28;20129;-80
2023/08/27 11:06:40;;;;;;;2.38;2.17;;;21.40;1.00;;;;;;5000329;28;20449;-78
2023/08/27 11:09:23;;;;;;;2.53;1.80;;;20.50;71.40;;;;;;4985258;28;20065;-79
2023/08/27 11:11:55;;;;;;;2.38;1.67;;;19.40;44.40;;;;;;4987693;28;20847;-77
2023/08/27 11:14:23;;;;;;;2.30;1.90;;;18.70;99.90;;;;;;4985255;28;20394;-77
2023/08/27 11:16:59;;;;;;;4.22;2.45;;;18.10;99.90;;;;;;4967995;28;20408;-78
2023/08/27 11:19:26;;;;;;;2.92;2.25;;;17.70;99.90;;;;;;4970520;28;20129;-77
2023/08/27 11:21:52;;;;;;;3.28;2.28;;;17.30;99.90;;;;;;4986452;28;20049;-80
2023/08/27 11:24:24;;;;;;;2.55;2.13;;;17.00;99.90;;;;;;4982763;28;20249;-79
2023/08/27 11:26:52;;;;;;;2.85;2.00;;;16.70;99.90;;;;;;4982892;28;20121;-79
2023/08/27 11:29:23;;;;;;;2.33;2.10;;;16.40;99.90;;;;;;4986190;28;20046;-79
2023/08/27 11:31:49;;;;;;;2.22;1.80;;;16.50;99.90;;;;;;4987550;28;20050;-78
2023/08/27 11:34:16;;;;;;;3.05;1.90;;;17.30;99.90;;;;;;4985218;28;20434;-79
2023/08/27 11:36:43;;;;;;;2.38;1.48;;;18.80;99.90;;;;;;4986147;28;20042;-79
2023/08/27 11:39:10;;;;;;;1.67;1.33;;;19.70;99.90;;;;;;4984623;28;20511;-79
2023/08/27 11:41:38;;;;;;;1.80;1.33;;;20.50;99.90;;;;;;5002789;28;20046;-79
2023/08/27 11:44:05;;;;;;;2.97;1.40;;;21.10;99.90;;;;;;4978850;28;20420;-79
2023/08/27 11:46:31;;;;;;;3.55;1.40;;;20.90;99.90;;;;;;4981206;28;20893;-79
2023/08/27 11:48:57;;;;;;;3.30;1.50;;;20.40;99.90;;;;;;4966997;28;20038;-79
2023/08/27 11:51:23;;;;;;;2.10;1.35;;;19.70;99.90;;;;;;4984860;28;20084;-79
2023/08/27 11:53:51;;;;;;;2.60;1.40;;;19.20;99.90;;;;;;5002010;28;20034;-78
2023/08/27 11:56:17;;;;;;;2.38;2.00;;;18.80;99.90;;;;;;4999344;28;20042;-78
2023/08/27 11:58:44;;;;;;;2.28;1.73;;;18.30;99.90;;;;;;4984446;28;20038;-79
2023/08/27 12:01:13;;;;;;;5.32;2.35;;;18.00;99.90;;;;;;4986292;28;20460;-78
2023/08/27 12:03:41;;;;;;;3.53;2.75;;;17.60;99.90;;;;;;4985403;28;20105;-79
2023/08/27 12:06:20;;;;;;;3.97;3.22;;;17.30;99.90;;;;;;4982953;28;20038;-79
2023/08/27 12:08:56;;;;;;;6.07;3.47;;;17.10;99.90;;;;;;5003181;28;20038;-79
2023/08/27 12:11:27;;;;;;;4.03;2.60;;;17.00;99.90;;;;;;4967585;28;20144;-78
2023/08/27 12:14:00;;;;;;;2.53;2.17;;;17.00;99.90;;;;;;4982973;28;20046;-78
2023/08/27 12:16:34;;;;;;;3.58;2.15;;;17.00;99.90;;;;;;4973691;28;20049;-79
2023/08/27 12:19:06;;;;;;;2.38;2.10;;;16.90;99.90;;;;;;4969094;28;20042;-79
2023/08/27 12:21:48;;;;;;;4.13;2.45;;;16.80;99.90;;;;;;4983690;28;20046;-79
2023/08/27 12:24:27;;;;;;;4.75;2.45;;;16.50;99.90;;;;;;4981932;28;20124;-78
2023/08/27 12:26:52;;;;;;;5.00;2.30;;;16.30;99.90;;;;;;4979879;28;20222;-78
2023/08/27 12:29:18;;;;;;;6.07;2.80;;;15.80;99.90;;;;;;4964825;28;20045;-79
2023/08/27 12:31:45;;;;;;;11.15;3.42;;;15.30;99.90;;;;;;4969050;28;20039;-78
2023/08/27 12:34:14;;;;;;;3.97;2.42;;;14.40;99.90;;;;;;4965915;28;20509;-78
2023/08/27 12:36:40;;;;;;;5.68;2.72;;;14.10;99.90;;;;;;4977611;28;20411;-79
2023/08/27 12:39:05;;;;;;;3.38;2.30;;;14.40;99.90;;;;;;4993938;28;20042;-78
2023/08/27 12:41:31;;;;;;;4.95;3.53;;;15.40;99.90;;;;;;4976162;28;20159;-79
2023/08/27 12:43:56;;;;;;;4.72;3.33;;;15.90;99.90;;;;;;4974059;28;20493;-78